Time;durP1;ratioP1;P1;durP2;ratioP2;P2;SDS_P1;SDS_P2;PMS_P1;PMS_P2;Temp;Humidity;BMP_temperature;BMP_pressure;BME280_temperature;BME280_humidity;BME280_pressure;Samples;Min_cycle;Max_cycle;Signal;HPM_P1;HPM_P2
2023/08/12 00:02:07;;;;;;;53.47;47.77;;;;;;;;;;5042009;28;20545;-63
2023/08/12 00:04:33;;;;;;;52.13;47.07;;;;;;;;;;5035578;28;21332;-63
2023/08/12 00:06:58;;;;;;;56.55;48.80;;;;;;;;;;5035325;28;21058;-63
2023/08/12 00:09:23;;;;;;;51.55;46.15;;;;;;;;;;5030880;28;20101;-64
2023/08/12 00:11:48;;;;;;;80.13;55.63;;;;;;;;;;5044313;28;20942;-63
2023/08/12 00:14:14;;;;;;;43.83;39.72;;;;;;;;;;5044420;28;21055;-63
2023/08/12 00:16:39;;;;;;;51.67;46.72;;;;;;;;;;5043485;28;20033;-63
2023/08/12 00:19:04;;;;;;;57.73;48.60;;;;;;;;;;5057542;28;20054;-63
2023/08/12 00:21:29;;;;;;;54.47;47.22;;;;;;;;;;5073185;28;20274;-63
2023/08/12 00:23:55;;;;;;;56.90;48.03;;;;;;;;;;5057912;28;20482;-63
2023/08/12 00:26:20;;;;;;;47.28;42.45;;;;;;;;;;5067598;28;20440;-63
2023/08/12 00:28:48;;;;;;;47.78;42.95;;;;;;;;;;5044475;28;20042;-63
2023/08/12 00:31:13;;;;;;;47.47;42.42;;;;;;;;;;5043969;28;20127;-63
2023/08/12 00:33:39;;;;;;;42.70;38.57;;;;;;;;;;5034211;28;20875;-63
2023/08/12 00:36:04;;;;;;;49.78;44.72;;;;;;;;;;5043536;28;20263;-63
2023/08/12 00:38:29;;;;;;;43.42;39.17;;;;;;;;;;5079597;28;20032;-63
2023/08/12 00:40:54;;;;;;;48.23;41.93;;;;;;;;;;5081769;28;20032;-63
2023/08/12 00:43:20;;;;;;;52.25;46.15;;;;;;;;;;5066740;28;20274;-63
2023/08/12 00:45:45;;;;;;;43.65;39.13;;;;;;;;;;5058708;28;20083;-63
2023/08/12 00:48:10;;;;;;;43.03;38.60;;;;;;;;;;5051309;28;20933;-63
2023/08/12 00:50:37;;;;;;;40.78;36.78;;;;;;;;;;5056621;28;20687;-64
2023/08/12 00:53:02;;;;;;;46.22;41.20;;;;;;;;;;5036702;28;20028;-64
2023/08/12 00:55:27;;;;;;;44.63;40.05;;;;;;;;;;5051646;28;20899;-64
2023/08/12 00:57:53;;;;;;;46.35;41.38;;;;;;;;;;5062232;28;20024;-63
2023/08/12 01:00:20;;;;;;;47.65;42.30;;;;;;;;;;5040082;28;20861;-63
2023/08/12 01:02:48;;;;;;;48.80;43.00;;;;;;;;;;5046726;28;20032;-64
2023/08/12 01:05:13;;;;;;;48.20;43.30;;;;;;;;;;5053711;28;20121;-64
2023/08/12 01:07:39;;;;;;;47.15;42.42;;;;;;;;;;5026355;28;20021;-64
2023/08/12 01:10:04;;;;;;;45.45;40.72;;;;;;;;;;5038168;28;20933;-64
2023/08/12 01:12:33;;;;;;;46.00;41.15;;;;;;;;;;5030578;28;20035;-64
2023/08/12 01:14:59;;;;;;;48.50;43.75;;;;;;;;;;5029309;28;20078;-64
2023/08/12 01:17:25;;;;;;;49.03;44.38;;;;;;;;;;5043351;28;20933;-63
2023/08/12 01:19:51;;;;;;;55.33;45.45;;;;;;;;;;5044569;28;20063;-63
2023/08/12 01:22:19;;;;;;;47.15;42.15;;;;;;;;;;5029243;28;20871;-64
2023/08/12 01:24:44;;;;;;;46.28;41.40;;;;;;;;;;5031507;28;20050;-64
2023/08/12 01:27:11;;;;;;;50.22;44.88;;;;;;;;;;5041140;28;20020;-64
2023/08/12 01:29:41;;;;;;;54.05;48.13;;;;;;;;;;5037713;28;20066;-64
2023/08/12 01:32:18;;;;;;;44.65;40.45;;;;;;;;;;5029649;28;20032;-64
2023/08/12 01:34:46;;;;;;;52.55;44.10;;;;;;;;;;5027607;28;20070;-64
2023/08/12 01:37:14;;;;;;;43.58;39.30;;;;;;;;;;5027934;28;20017;-65
2023/08/12 01:39:39;;;;;;;51.67;44.45;;;;;;;;;;5085972;28;20070;-64
2023/08/12 01:42:05;;;;;;;45.22;40.53;;;;;;;;;;5087519;28;20107;-63
2023/08/12 01:44:31;;;;;;;47.55;42.60;;;;;;;;;;5083422;28;20021;-63
2023/08/12 01:46:56;;;;;;;42.35;38.22;;;;;;;;;;5053842;28;20824;-65
2023/08/12 01:49:24;;;;;;;39.72;36.00;;;;;;;;;;5040474;28;20089;-65
2023/08/12 01:51:49;;;;;;;40.75;37.10;;;;;;;;;;5040302;28;20039;-64
2023/08/12 01:54:14;;;;;;;48.17;41.05;;;;;;;;;;5040323;28;20028;-65
2023/08/12 01:56:39;;;;;;;47.57;41.57;;;;;;;;;;5036641;28;20950;-65
2023/08/12 01:59:05;;;;;;;41.97;37.73;;;;;;;;;;5029111;28;20417;-64
2023/08/12 02:01:30;;;;;;;48.40;43.23;;;;;;;;;;5029810;28;20282;-64
2023/08/12 02:03:55;;;;;;;46.23;41.63;;;;;;;;;;5036611;28;20381;-64
2023/08/12 02:06:21;;;;;;;47.53;41.97;;;;;;;;;;5033810;28;21214;-64
2023/08/12 02:08:46;;;;;;;52.67;42.70;;;;;;;;;;5033878;28;20582;-64
2023/08/12 02:11:11;;;;;;;45.00;40.58;;;;;;;;;;5033640;28;20976;-63
2023/08/12 02:13:36;;;;;;;35.80;32.43;;;;;;;;;;5041733;28;20036;-63
2023/08/12 02:16:02;;;;;;;42.87;38.33;;;;;;;;;;5036187;28;21196;-63
2023/08/12 02:18:27;;;;;;;50.75;42.72;;;;;;;;;;5031040;28;20299;-64
2023/08/12 02:20:53;;;;;;;52.87;40.73;;;;;;;;;;5042333;28;20020;-63
2023/08/12 02:23:18;;;;;;;41.10;37.15;;;;;;;;;;5030681;28;20274;-64
2023/08/12 02:25:43;;;;;;;48.83;41.30;;;;;;;;;;5043566;28;20138;-63
2023/08/12 02:28:08;;;;;;;43.50;39.03;;;;;;;;;;5032064;28;20908;-63
2023/08/12 02:30:34;;;;;;;53.83;44.03;;;;;;;;;;5033801;28;20036;-63
2023/08/12 02:32:59;;;;;;;47.72;42.45;;;;;;;;;;5033265;28;20029;-63
2023/08/12 02:35:24;;;;;;;42.37;38.00;;;;;;;;;;5040623;28;20826;-63
2023/08/12 02:37:49;;;;;;;58.13;44.27;;;;;;;;;;5051270;28;20425;-63
2023/08/12 02:40:15;;;;;;;43.00;38.03;;;;;;;;;;5039523;28;20270;-64
2023/08/12 02:42:40;;;;;;;45.60;40.05;;;;;;;;;;5034248;28;20273;-63
2023/08/12 02:45:05;;;;;;;43.50;39.17;;;;;;;;;;5038630;28;20930;-63
2023/08/12 02:47:31;;;;;;;54.72;44.35;;;;;;;;;;5080126;28;20333;-63
2023/08/12 02:49:56;;;;;;;42.33;38.07;;;;;;;;;;5063711;28;20929;-63
2023/08/12 02:52:21;;;;;;;42.60;38.10;;;;;;;;;;5039812;28;20487;-63
2023/08/12 02:54:46;;;;;;;45.38;40.45;;;;;;;;;;5033978;28;20339;-64
2023/08/12 02:57:12;;;;;;;41.37;37.37;;;;;;;;;;5057336;28;20092;-63
2023/08/12 02:59:40;;;;;;;51.87;42.47;;;;;;;;;;5032777;28;20407;-63
2023/08/12 03:02:05;;;;;;;41.28;37.15;;;;;;;;;;5071577;28;20270;-63
2023/08/12 03:04:30;;;;;;;49.70;43.30;;;;;;;;;;5086641;28;20020;-63
2023/08/12 03:06:56;;;;;;;53.20;43.77;;;;;;;;;;5083644;28;20286;-63
2023/08/12 03:09:21;;;;;;;47.30;40.73;;;;;;;;;;5082725;28;20270;-63
2023/08/12 03:11:46;;;;;;;52.65;46.58;;;;;;;;;;5086358;28;20270;-63
2023/08/12 03:14:11;;;;;;;45.58;40.85;;;;;;;;;;5049912;28;20085;-64
2023/08/12 03:16:37;;;;;;;45.75;41.05;;;;;;;;;;5037938;28;20859;-63
2023/08/12 03:19:02;;;;;;;46.55;41.53;;;;;;;;;;5044442;28;20098;-64
2023/08/12 03:21:27;;;;;;;43.60;39.17;;;;;;;;;;5041767;28;21012;-63
2023/08/12 03:23:53;;;;;;;42.75;38.30;;;;;;;;;;5017774;28;20036;-63
2023/08/12 03:26:18;;;;;;;43.85;39.25;;;;;;;;;;5082214;28;20035;-63
2023/08/12 03:28:43;;;;;;;42.67;38.27;;;;;;;;;;5043386;28;20844;-63
2023/08/12 03:31:09;;;;;;;45.70;40.25;;;;;;;;;;5043976;28;20270;-63
2023/08/12 03:33:34;;;;;;;43.93;39.13;;;;;;;;;;5031448;28;20862;-63
2023/08/12 03:35:59;;;;;;;53.83;42.95;;;;;;;;;;5045805;28;20443;-62
2023/08/12 03:38:24;;;;;;;42.03;37.83;;;;;;;;;;5035251;28;20025;-62
2023/08/12 03:40:50;;;;;;;55.45;42.45;;;;;;;;;;5053049;28;21219;-62
2023/08/12 03:43:15;;;;;;;42.90;38.70;;;;;;;;;;5080697;28;20024;-62
2023/08/12 03:45:41;;;;;;;44.38;39.10;;;;;;;;;;5075481;28;20274;-62
2023/08/12 03:48:06;;;;;;;46.13;41.35;;;;;;;;;;5037586;28;20024;-62
2023/08/12 03:50:38;;;;;;;45.17;40.63;;;;;;;;;;5032224;28;20146;-62
2023/08/12 03:53:04;;;;;;;49.92;42.53;;;;;;;;;;5042030;28;20024;-62
2023/08/12 03:55:33;;;;;;;45.85;41.50;;;;;;;;;;5044124;28;20027;-62
2023/08/12 03:57:58;;;;;;;51.47;43.60;;;;;;;;;;5041940;28;20314;-63
2023/08/12 04:00:24;;;;;;;43.47;38.97;;;;;;;;;;5043092;28;20844;-65
2023/08/12 04:02:49;;;;;;;56.63;44.75;;;;;;;;;;5040294;28;20121;-63
2023/08/12 04:05:14;;;;;;;77.45;48.42;;;;;;;;;;5045129;28;20024;-65
2023/08/12 04:07:39;;;;;;;54.30;42.67;;;;;;;;;;5045945;28;20131;-65
2023/08/12 04:10:05;;;;;;;69.85;49.45;;;;;;;;;;5041702;28;20278;-63
2023/08/12 04:12:30;;;;;;;47.67;42.65;;;;;;;;;;5035861;28;20040;-63
2023/08/12 04:14:55;;;;;;;58.67;47.70;;;;;;;;;;5042287;28;20338;-63
2023/08/12 04:17:21;;;;;;;48.37;43.20;;;;;;;;;;5043616;28;20313;-63
2023/08/12 04:19:46;;;;;;;53.65;46.47;;;;;;;;;;5037666;28;20310;-64
2023/08/12 04:22:11;;;;;;;57.83;48.73;;;;;;;;;;5037682;28;20826;-64
2023/08/12 04:24:37;;;;;;;58.13;46.77;;;;;;;;;;5043692;28;21172;-63
2023/08/12 04:27:02;;;;;;;67.25;52.22;;;;;;;;;;5045083;28;20373;-62
2023/08/12 04:29:27;;;;;;;68.38;54.65;;;;;;;;;;5046069;28;20028;-63
2023/08/12 04:31:52;;;;;;;68.03;54.60;;;;;;;;;;5034202;28;20127;-62
2023/08/12 04:34:18;;;;;;;66.27;54.93;;;;;;;;;;5043985;28;20313;-62
2023/08/12 04:36:43;;;;;;;63.70;51.30;;;;;;;;;;5037138;28;20730;-62
2023/08/12 04:39:10;;;;;;;82.10;67.03;;;;;;;;;;5077909;28;20050;-63
2023/08/12 04:41:35;;;;;;;77.90;58.25;;;;;;;;;;5075744;28;20016;-64
2023/08/12 04:44:00;;;;;;;90.10;60.58;;;;;;;;;;5062278;28;20024;-63
2023/08/12 04:46:25;;;;;;;65.30;54.63;;;;;;;;;;5054262;28;20036;-62
2023/08/12 04:48:51;;;;;;;72.40;57.47;;;;;;;;;;5047160;28;20933;-62
2023/08/12 04:51:16;;;;;;;64.18;52.90;;;;;;;;;;5051064;28;20414;-62
2023/08/12 04:53:41;;;;;;;62.75;51.42;;;;;;;;;;5059159;28;20027;-62
2023/08/12 04:56:07;;;;;;;50.03;44.65;;;;;;;;;;5087465;28;20040;-64
2023/08/12 04:58:32;;;;;;;47.72;42.80;;;;;;;;;;5036505;28;20036;-62
2023/08/12 05:00:57;;;;;;;49.72;41.00;;;;;;;;;;5042084;28;21377;-62
2023/08/12 05:03:23;;;;;;;52.35;40.88;;;;;;;;;;5033632;28;20024;-63
2023/08/12 05:05:52;;;;;;;34.97;30.48;;;;;;;;;;5032909;28;20041;-63
2023/08/12 05:08:20;;;;;;;31.60;28.35;;;;;;;;;;5032514;28;20020;-63
2023/08/12 05:10:48;;;;;;;28.33;25.45;;;;;;;;;;5037702;28;20116;-63
2023/08/12 05:13:13;;;;;;;28.73;25.70;;;;;;;;;;5039511;28;20019;-63
2023/08/12 05:15:39;;;;;;;24.42;21.88;;;;;;;;;;5082183;28;20028;-63
2023/08/12 05:18:05;;;;;;;23.77;21.13;;;;;;;;;;5047286;28;20043;-63
2023/08/12 05:20:30;;;;;;;22.00;19.80;;;;;;;;;;5056773;28;20024;-64
2023/08/12 05:22:55;;;;;;;25.60;22.33;;;;;;;;;;5060125;28;20137;-63
2023/08/12 05:25:20;;;;;;;21.33;17.67;;;;;;;;;;5049094;28;20308;-64
2023/08/12 05:27:46;;;;;;;19.10;15.60;;;;;;;;;;5043962;28;20273;-65
2023/08/12 05:30:11;;;;;;;15.40;13.75;;;;;;;;;;5055701;28;20298;-63
2023/08/12 05:32:37;;;;;;;17.38;14.50;;;;;;;;;;5036343;28;20039;-65
2023/08/12 05:35:02;;;;;;;15.73;13.18;;;;;;;;;;5044564;28;20862;-66
2023/08/12 05:37:27;;;;;;;14.10;12.45;;;;;;;;;;5028916;28;20037;-67
2023/08/12 05:39:52;;;;;;;14.67;13.10;;;;;;;;;;5033977;28;20023;-65
2023/08/12 05:42:18;;;;;;;12.77;11.57;;;;;;;;;;5034586;28;21231;-66
2023/08/12 05:44:43;;;;;;;12.13;10.57;;;;;;;;;;5033350;28;20319;-65
2023/08/12 05:47:08;;;;;;;14.27;12.30;;;;;;;;;;5063016;28;20325;-64
2023/08/12 05:49:33;;;;;;;14.87;11.73;;;;;;;;;;5061590;28;20038;-63
2023/08/12 05:51:59;;;;;;;13.67;12.10;;;;;;;;;;5042801;28;20259;-65
2023/08/12 05:54:24;;;;;;;11.40;10.27;;;;;;;;;;5042854;28;20349;-63
2023/08/12 05:56:49;;;;;;;12.65;10.93;;;;;;;;;;5039376;28;20274;-64
2023/08/12 05:59:15;;;;;;;11.48;10.40;;;;;;;;;;5040930;28;20059;-61
2023/08/12 06:01:40;;;;;;;13.30;11.95;;;;;;;;;;5040292;28;20128;-64
2023/08/12 06:04:05;;;;;;;11.77;10.53;;;;;;;;;;5033677;28;20861;-63
2023/08/12 06:06:31;;;;;;;12.10;10.90;;;;;;;;;;5041474;28;20269;-63
2023/08/12 06:08:56;;;;;;;10.57;9.57;;;;;;;;;;5046258;28;20339;-62
2023/08/12 06:11:21;;;;;;;11.07;10.07;;;;;;;;;;5031419;28;20020;-65
2023/08/12 06:13:46;;;;;;;10.73;9.73;;;;;;;;;;5037050;28;20266;-63
2023/08/12 06:16:12;;;;;;;10.73;9.60;;;;;;;;;;5039959;28;20032;-63
2023/08/12 06:18:37;;;;;;;10.32;8.95;;;;;;;;;;5040060;28;20297;-63
2023/08/12 06:21:02;;;;;;;9.73;8.83;;;;;;;;;;5066664;28;20455;-63
2023/08/12 06:23:27;;;;;;;10.17;8.67;;;;;;;;;;5088650;28;20653;-62
2023/08/12 06:25:53;;;;;;;8.60;7.65;;;;;;;;;;5085029;28;20283;-63
2023/08/12 06:28:18;;;;;;;10.37;8.40;;;;;;;;;;5087998;28;20024;-63
2023/08/12 06:30:48;;;;;;;9.27;8.02;;;;;;;;;;5075630;28;20279;-63
2023/08/12 06:33:13;;;;;;;9.30;8.20;;;;;;;;;;5088119;28;20024;-63
2023/08/12 06:35:39;;;;;;;9.10;8.20;;;;;;;;;;5086570;28;20021;-63
2023/08/12 06:38:04;;;;;;;8.18;7.38;;;;;;;;;;5088793;28;20369;-62
2023/08/12 06:40:30;;;;;;;8.37;7.40;;;;;;;;;;5087036;28;20444;-64
2023/08/12 06:42:56;;;;;;;10.00;8.82;;;;;;;;;;5080147;28;20274;-63
2023/08/12 06:45:21;;;;;;;9.65;8.65;;;;;;;;;;5084066;28;20106;-63
2023/08/12 06:47:46;;;;;;;8.13;7.33;;;;;;;;;;5076250;28;20391;-63
2023/08/12 06:50:11;;;;;;;9.50;8.48;;;;;;;;;;5055973;28;20687;-63
2023/08/12 06:52:37;;;;;;;8.32;7.38;;;;;;;;;;5081335;28;20016;-64
2023/08/12 06:55:02;;;;;;;6.65;5.35;;;;;;;;;;5077955;28;20024;-63
2023/08/12 06:57:27;;;;;;;6.72;6.03;;;;;;;;;;5080527;28;20088;-63
2023/08/12 06:59:52;;;;;;;7.43;6.07;;;;;;;;;;5071110;28;20032;-63
2023/08/12 07:02:18;;;;;;;6.72;5.85;;;;;;;;;;5073222;28;20286;-63
2023/08/12 07:04:43;;;;;;;7.35;5.82;;;;;;;;;;5050198;28;21003;-64
2023/08/12 07:07:08;;;;;;;5.82;5.18;;;;;;;;;;5033034;28;20131;-63
2023/08/12 07:09:33;;;;;;;5.77;3.47;;;;;;;;;;5038221;28;20016;-63
2023/08/12 07:12:01;;;;;;;6.57;4.47;;;;;;;;;;5044777;28;21178;-63
2023/08/12 07:14:27;;;;;;;4.95;4.43;;;;;;;;;;5033872;28;20267;-63
2023/08/12 07:16:53;;;;;;;4.82;4.32;;;;;;;;;;5075905;28;20094;-63
2023/08/12 07:19:18;;;;;;;6.78;4.93;;;;;;;;;;5075135;28;20152;-63
2023/08/12 07:21:43;;;;;;;6.83;5.03;;;;;;;;;;5066065;28;20016;-63
2023/08/12 07:24:08;;;;;;;6.60;4.83;;;;;;;;;;5042800;28;20304;-63
2023/08/12 07:26:34;;;;;;;4.77;4.10;;;;;;;;;;5045032;28;20309;-63
2023/08/12 07:28:59;;;;;;;6.18;4.45;;;;;;;;;;5044411;28;21172;-63
2023/08/12 07:31:24;;;;;;;4.75;4.30;;;;;;;;;;5045023;28;20024;-65
2023/08/12 07:33:50;;;;;;;5.18;4.68;;;;;;;;;;5045847;28;20435;-64
2023/08/12 07:36:15;;;;;;;5.95;3.92;;;;;;;;;;5041635;28;20078;-63
2023/08/12 07:38:40;;;;;;;4.17;3.67;;;;;;;;;;5059064;28;20020;-64
2023/08/12 07:41:05;;;;;;;5.53;4.30;;;;;;;;;;5089865;28;20286;-65
2023/08/12 07:43:31;;;;;;;4.47;3.87;;;;;;;;;;5091161;28;20028;-66
2023/08/12 07:45:56;;;;;;;5.60;4.77;;;;;;;;;;5090127;28;20266;-65
2023/08/12 07:48:21;;;;;;;5.10;3.53;;;;;;;;;;5085885;28;20266;-65
2023/08/12 07:50:48;;;;;;;4.00;3.60;;;;;;;;;;5069305;28;20470;-63
2023/08/12 07:53:14;;;;;;;4.95;3.40;;;;;;;;;;5073803;28;20274;-64
2023/08/12 07:55:39;;;;;;;4.03;3.53;;;;;;;;;;5088073;28;20024;-65
2023/08/12 07:58:05;;;;;;;3.70;3.05;;;;;;;;;;5088076;28;20028;-65
2023/08/12 08:00:30;;;;;;;4.28;3.65;;;;;;;;;;5079769;28;20066;-67
2023/08/12 08:02:55;;;;;;;4.23;3.70;;;;;;;;;;5088972;28;20363;-64
2023/08/12 08:05:20;;;;;;;3.80;3.40;;;;;;;;;;5085518;28;20275;-64
2023/08/12 08:07:45;;;;;;;4.20;3.50;;;;;;;;;;5088880;28;20036;-64
2023/08/12 08:10:11;;;;;;;4.30;2.87;;;;;;;;;;5085423;28;20278;-64
2023/08/12 08:12:36;;;;;;;4.35;3.30;;;;;;;;;;5083908;28;20275;-64
2023/08/12 08:15:03;;;;;;;3.10;2.57;;;;;;;;;;5061029;28;20036;-64
2023/08/12 08:17:28;;;;;;;3.30;2.65;;;;;;;;;;5044468;28;20276;-65
2023/08/12 08:19:53;;;;;;;3.67;2.13;;;;;;;;;;5043797;28;20881;-64
2023/08/12 08:22:18;;;;;;;2.70;1.77;;;;;;;;;;5054519;28;20020;-65
2023/08/12 08:25:00;;;;;;;3.13;1.90;;;;;;;;;;5044726;28;20274;-64
2023/08/12 08:27:25;;;;;;;2.40;1.70;;;;;;;;;;5084852;28;20286;-65
2023/08/12 08:29:50;;;;;;;2.33;1.73;;;;;;;;;;5089328;28;20444;-64
2023/08/12 08:32:16;;;;;;;2.87;2.03;;;;;;;;;;5084717;28;20027;-64
2023/08/12 08:34:42;;;;;;;3.25;2.08;;;;;;;;;;5052390;28;20286;-64
2023/08/12 08:37:07;;;;;;;2.40;1.70;;;;;;;;;;5075725;28;20131;-64
2023/08/12 08:39:32;;;;;;;2.60;1.60;;;;;;;;;;5047874;28;20024;-65
2023/08/12 08:42:02;;;;;;;2.90;1.88;;;;;;;;;;5065361;28;20370;-65
2023/08/12 08:44:29;;;;;;;2.88;1.80;;;;;;;;;;5058198;28;20870;-65
2023/08/12 08:46:58;;;;;;;6.30;1.95;;;;;;;;;;5050678;28;20830;-66
2023/08/12 08:49:23;;;;;;;2.33;1.83;;;;;;;;;;5075093;28;20047;-65
2023/08/12 08:51:49;;;;;;;3.63;2.20;;;;;;;;;;5074639;28;20056;-65
2023/08/12 08:54:15;;;;;;;2.75;1.85;;;;;;;;;;5079506;28;20020;-64
2023/08/12 08:56:40;;;;;;;2.50;1.65;;;;;;;;;;5055636;28;20087;-64
2023/08/12 08:59:05;;;;;;;2.70;2.13;;;;;;;;;;5039919;28;20111;-64
2023/08/12 09:01:31;;;;;;;2.97;2.50;;;;;;;;;;5088805;28;20036;-64
2023/08/12 09:03:57;;;;;;;2.90;2.17;;;;;;;;;;5081461;28;20040;-65
2023/08/12 09:06:24;;;;;;;3.03;2.30;;;;;;;;;;5088368;28;20016;-64
2023/08/12 09:08:51;;;;;;;3.15;2.50;;;;;;;;;;5088936;28;20037;-64
2023/08/12 09:11:17;;;;;;;5.25;2.42;;;;;;;;;;5088109;28;20077;-64
2023/08/12 09:13:42;;;;;;;3.50;2.30;;;;;;;;;;5077819;28;20426;-64
2023/08/12 09:16:09;;;;;;;3.42;2.70;;;;;;;;;;5090820;28;20039;-64
2023/08/12 09:18:34;;;;;;;3.03;2.45;;;;;;;;;;5086628;28;20031;-64
2023/08/12 09:21:00;;;;;;;2.70;2.10;;;;;;;;;;5084148;28;20020;-64
2023/08/12 09:23:26;;;;;;;3.88;2.63;;;;;;;;;;5090344;28;20383;-64
2023/08/12 09:25:51;;;;;;;3.45;2.53;;;;;;;;;;5076143;28;20070;-64
2023/08/12 09:28:16;;;;;;;2.87;1.90;;;;;;;;;;5080381;28;20420;-64
2023/08/12 09:30:42;;;;;;;3.28;2.38;;;;;;;;;;5063281;28;20305;-65
2023/08/12 09:33:07;;;;;;;2.95;2.08;;;;;;;;;;5074152;28;20037;-65
2023/08/12 09:35:33;;;;;;;3.33;2.20;;;;;;;;;;5075528;28;20047;-64
2023/08/12 09:37:58;;;;;;;3.28;2.47;;;;;;;;;;5088491;28;20036;-64
2023/08/12 09:40:24;;;;;;;3.43;2.30;;;;;;;;;;5085069;28;20382;-64
2023/08/12 09:42:50;;;;;;;5.90;2.38;;;;;;;;;;5088198;28;20305;-65
2023/08/12 09:45:15;;;;;;;4.90;2.47;;;;;;;;;;5086969;28;20023;-66
2023/08/12 09:47:42;;;;;;;3.13;2.42;;;;;;;;;;5077011;28;20727;-65
2023/08/12 09:50:07;;;;;;;3.30;2.80;;;;;;;;;;5087857;28;20020;-65
2023/08/12 09:52:32;;;;;;;3.88;2.88;;;;;;;;;;5083315;28;20509;-65
2023/08/12 09:54:58;;;;;;;3.85;3.10;;;;;;;;;;5032960;28;20024;-65
2023/08/12 09:57:25;;;;;;;4.05;3.13;;;;;;;;;;5033049;28;20028;-65
2023/08/12 09:59:53;;;;;;;4.57;3.50;;;;;;;;;;5033288;28;20044;-65
2023/08/12 10:02:19;;;;;;;5.68;3.97;;;;;;;;;;5042971;28;20042;-65
2023/08/12 10:04:45;;;;;;;4.22;3.75;;;;;;;;;;5035893;28;20459;-65
2023/08/12 10:07:12;;;;;;;4.75;3.75;;;;;;;;;;5029219;28;20016;-65
2023/08/12 10:09:38;;;;;;;4.05;3.30;;;;;;;;;;5033779;28;20020;-65
2023/08/12 10:12:04;;;;;;;3.83;3.20;;;;;;;;;;5043220;28;20124;-65
2023/08/12 10:14:29;;;;;;;4.28;3.00;;;;;;;;;;5074464;28;20024;-65
2023/08/12 10:16:55;;;;;;;3.45;2.83;;;;;;;;;;5081869;28;20025;-65
2023/08/12 10:19:21;;;;;;;5.25;2.60;;;;;;;;;;5070229;28;20032;-65
2023/08/12 10:21:47;;;;;;;3.95;2.65;;;;;;;;;;5081348;28;20024;-65
2023/08/12 10:24:13;;;;;;;2.88;2.17;;;;;;;;;;5088925;28;20040;-65
2023/08/12 10:26:40;;;;;;;3.95;2.65;;;;;;;;;;5084567;28;20020;-65
2023/08/12 10:29:05;;;;;;;2.22;1.70;;;;;;;;;;5078003;28;20047;-65
2023/08/12 10:31:30;;;;;;;2.92;1.60;;;;;;;;;;5078413;28;20059;-65
2023/08/12 10:33:57;;;;;;;2.80;1.87;;;;;;;;;;5081361;28;20111;-64
2023/08/12 10:36:22;;;;;;;4.45;1.80;;;;;;;;;;5064885;28;20768;-64
2023/08/12 10:38:48;;;;;;;2.90;1.77;;;;;;;;;;5088529;28;20031;-64
2023/08/12 10:41:20;;;;;;;3.17;1.63;;;;;;;;;;5079862;28;20539;-64
2023/08/12 10:44:05;;;;;;;3.30;1.40;;;;;;;;;;5080940;28;20107;-64
2023/08/12 10:46:34;;;;;;;4.82;1.40;;;;;;;;;;5082053;28;20025;-65
2023/08/12 10:49:03;;;;;;;3.22;1.42;;;;;;;;;;5058531;28;20429;-65
2023/08/12 10:51:47;;;;;;;2.55;1.35;;;;;;;;;;5086986;28;20028;-65
2023/08/12 10:54:22;;;;;;;2.92;1.50;;;;;;;;;;5089637;28;20020;-64
2023/08/12 10:57:16;;;;;;;1.90;1.10;;;;;;;;;;5082180;28;20067;-65
2023/08/12 10:59:44;;;;;;;2.53;1.20;;;;;;;;;;5065151;28;20045;-64
2023/08/12 11:02:26;;;;;;;1.67;1.00;;;;;;;;;;5080525;28;20093;-64
2023/08/12 11:05:00;;;;;;;1.83;1.10;;;;;;;;;;5078582;28;20024;-64
2023/08/12 11:07:31;;;;;;;1.90;1.23;;;;;;;;;;5089718;28;20602;-66
2023/08/12 11:09:59;;;;;;;2.38;1.30;;;;;;;;;;5090275;28;20497;-65
2023/08/12 11:12:30;;;;;;;3.88;2.22;;;;;;;;;;5081744;28;20028;-65
2023/08/12 11:14:57;;;;;;;2.90;1.90;;;;;;;;;;5083387;28;20071;-65
2023/08/12 11:17:29;;;;;;;3.38;1.88;;;;;;;;;;5083356;28;20089;-63
2023/08/12 11:19:55;;;;;;;3.78;2.67;;;;;;;;;;5076491;28;20112;-65
2023/08/12 11:22:20;;;;;;;3.80;2.90;;;;;;;;;;5081639;28;20423;-64
2023/08/12 11:24:47;;;;;;;3.22;2.92;;;;;;;;;;5075887;28;20020;-64
2023/08/12 11:27:13;;;;;;;4.00;3.20;;;;;;;;;;5081989;28;20031;-64
2023/08/12 11:29:39;;;;;;;3.83;3.20;;;;;;;;;;5084726;28;20085;-65
2023/08/12 11:32:05;;;;;;;3.25;2.95;;;;;;;;;;5085749;28;20534;-64
2023/08/12 11:34:31;;;;;;;3.45;2.80;;;;;;;;;;5080128;28;20017;-63
2023/08/12 11:36:56;;;;;;;5.57;2.45;;;;;;;;;;5083763;28;20016;-64
2023/08/12 11:39:23;;;;;;;3.75;2.30;;;;;;;;;;5087453;28;20063;-64
2023/08/12 11:41:50;;;;;;;4.07;2.83;;;;;;;;;;5089341;28;20385;-64
2023/08/12 11:44:15;;;;;;;3.47;2.33;;;;;;;;;;5069351;28;20487;-64
2023/08/12 11:46:41;;;;;;;5.32;2.75;;;;;;;;;;5081143;28;20036;-65
2023/08/12 11:49:06;;;;;;;3.03;1.90;;;;;;;;;;5081937;28;20042;-64
2023/08/12 11:51:33;;;;;;;2.70;1.98;;;;;;;;;;5091673;28;20502;-64
2023/08/12 11:53:58;;;;;;;3.22;2.45;;;;;;;;;;5082296;28;20071;-64
2023/08/12 11:56:23;;;;;;;2.72;2.03;;;;;;;;;;5080928;28;20044;-64
2023/08/12 11:58:50;;;;;;;2.13;1.48;;;;;;;;;;5081752;28;20028;-66
2023/08/12 12:01:15;;;;;;;3.58;2.00;;;;;;;;;;5079009;28;20023;-64
2023/08/12 12:03:41;;;;;;;3.35;1.60;;;;;;;;;;5077063;28;20025;-65
2023/08/12 12:06:06;;;;;;;3.30;1.67;;;;;;;;;;5079811;28;20020;-64
2023/08/12 12:08:32;;;;;;;2.80;1.48;;;;;;;;;;5079088;28;20077;-65
2023/08/12 12:11:03;;;;;;;2.22;1.00;;;;;;;;;;5077820;28;20528;-64
2023/08/12 12:13:29;;;;;;;3.67;1.38;;;;;;;;;;5081234;28;20024;-65
2023/08/12 12:15:54;;;;;;;3.15;1.38;;;;;;;;;;5085053;28;20016;-64
2023/08/12 12:18:20;;;;;;;2.40;1.13;;;;;;;;;;5077538;28;20360;-65
2023/08/12 12:20:55;;;;;;;2.00;0.97;;;;;;;;;;5078451;28;20343;-66
2023/08/12 12:23:22;;;;;;;2.33;1.30;;;;;;;;;;5079758;28;20637;-65
2023/08/12 12:25:47;;;;;;;2.20;1.00;;;;;;;;;;5077503;28;20093;-65
2023/08/12 12:28:12;;;;;;;1.85;0.80;;;;;;;;;;5079041;28;20028;-65
2023/08/12 12:30:38;;;;;;;1.95;1.00;;;;;;;;;;5090085;28;20013;-65
2023/08/12 12:33:03;;;;;;;2.20;0.95;;;;;;;;;;5090681;28;20028;-63
2023/08/12 12:35:28;;;;;;;1.73;0.77;;;;;;;;;;5089892;28;20378;-66
2023/08/12 12:37:54;;;;;;;2.10;0.73;;;;;;;;;;5091826;28;20035;-66
2023/08/12 12:40:19;;;;;;;1.10;0.50;;;;;;;;;;5091539;28;20286;-66
2023/08/12 12:42:44;;;;;;;2.30;0.90;;;;;;;;;;5091697;28;20616;-66
2023/08/12 12:45:09;;;;;;;2.87;0.80;;;;;;;;;;5090791;28;20270;-65
2023/08/12 12:47:35;;;;;;;2.13;0.90;;;;;;;;;;5080439;28;20028;-66
2023/08/12 12:50:00;;;;;;;2.22;0.93;;;;;;;;;;5083789;28;20025;-66
2023/08/12 12:52:26;;;;;;;3.43;1.30;;;;;;;;;;5074134;28;20418;-66
2023/08/12 12:54:51;;;;;;;1.83;0.77;;;;;;;;;;5072327;28;20270;-66
2023/08/12 12:57:16;;;;;;;2.90;1.20;;;;;;;;;;5073869;28;20270;-66
2023/08/12 12:59:42;;;;;;;3.00;1.00;;;;;;;;;;5075312;28;20305;-67
2023/08/12 13:02:07;;;;;;;2.53;1.00;;;;;;;;;;5073761;28;20471;-68
2023/08/12 13:04:32;;;;;;;1.73;0.95;;;;;;;;;;5073708;28;20269;-66
2023/08/12 13:06:58;;;;;;;2.13;0.90;;;;;;;;;;5072566;28;20687;-67
2023/08/12 13:09:23;;;;;;;2.42;1.00;;;;;;;;;;5073636;28;20364;-66
2023/08/12 13:11:48;;;;;;;8.18;1.23;;;;;;;;;;5085400;28;20099;-65
2023/08/12 13:14:13;;;;;;;1.73;0.67;;;;;;;;;;5086057;28;20118;-66
2023/08/12 13:16:39;;;;;;;3.77;1.23;;;;;;;;;;5082702;28;20277;-65
2023/08/12 13:19:04;;;;;;;2.77;0.83;;;;;;;;;;5090395;28;20772;-65
2023/08/12 13:21:29;;;;;;;3.35;1.10;;;;;;;;;;5055771;28;20377;-65
2023/08/12 13:23:57;;;;;;;1.70;0.80;;;;;;;;;;5072707;28;20028;-65
2023/08/12 13:26:22;;;;;;;2.40;1.02;;;;;;;;;;5074788;28;20271;-65
2023/08/12 13:28:48;;;;;;;3.13;1.10;;;;;;;;;;5089974;28;20024;-65
2023/08/12 13:31:13;;;;;;;3.40;1.13;;;;;;;;;;5073635;28;20112;-65
2023/08/12 13:33:38;;;;;;;7.38;1.52;;;;;;;;;;5079034;28;20066;-65
2023/08/12 13:36:03;;;;;;;5.50;1.23;;;;;;;;;;5071333;28;20482;-64
2023/08/12 13:38:29;;;;;;;4.18;1.10;;;;;;;;;;5090218;28;20297;-68
2023/08/12 13:40:54;;;;;;;2.78;1.08;;;;;;;;;;5083575;28;20033;-67
2023/08/12 13:43:20;;;;;;;2.80;1.13;;;;;;;;;;5086771;28;20051;-67
2023/08/12 13:45:45;;;;;;;4.00;1.30;;;;;;;;;;5086303;28;20069;-67
2023/08/12 13:48:10;;;;;;;2.27;0.97;;;;;;;;;;5085877;28;20293;-66
2023/08/12 13:50:36;;;;;;;2.40;0.87;;;;;;;;;;5078024;28;20277;-66
2023/08/12 13:53:02;;;;;;;3.42;1.08;;;;;;;;;;5088150;28;20281;-66
2023/08/12 13:55:27;;;;;;;2.45;0.73;;;;;;;;;;5077998;28;20032;-66
2023/08/12 13:57:53;;;;;;;3.77;1.77;;;;;;;;;;5085617;28;20043;-66
2023/08/12 14:00:18;;;;;;;10.52;1.35;;;;;;;;;;5077985;28;20271;-66
2023/08/12 14:02:44;;;;;;;4.25;1.15;;;;;;;;;;5084583;28;20036;-67
2023/08/12 14:05:10;;;;;;;6.53;1.38;;;;;;;;;;5084170;28;20024;-66
2023/08/12 14:07:38;;;;;;;3.47;1.42;;;;;;;;;;5084723;28;20020;-66
2023/08/12 14:10:04;;;;;;;3.92;1.30;;;;;;;;;;5079619;28;20029;-65
2023/08/12 14:12:29;;;;;;;2.80;1.10;;;;;;;;;;5078241;28;20068;-66
2023/08/12 14:14:54;;;;;;;3.43;1.20;;;;;;;;;;5076885;28;20462;-66
2023/08/12 14:17:22;;;;;;;3.00;1.00;;;;;;;;;;5081801;28;20266;-66
2023/08/12 14:19:48;;;;;;;4.28;1.17;;;;;;;;;;5075966;28;20135;-66
2023/08/12 14:22:13;;;;;;;3.20;1.38;;;;;;;;;;5080728;28;20149;-66
2023/08/12 14:24:39;;;;;;;4.50;1.83;;;;;;;;;;5074697;28;20016;-66